Time;durP1;ratioP1;P1;durP2;ratioP2;P2;SDS_P1;SDS_P2;PMS_P1;PMS_P2;Temp;Humidity;BMP_temperature;BMP_pressure;BME280_temperature;BME280_humidity;BME280_pressure;Samples;Min_cycle;Max_cycle;Signal;HPM_P1;HPM_P2
2023/12/30 00:01:51;;;;;;;1.80;0.50;;;;;;;8.40;77.88;99840.16;106455;1285;71205;-59
2023/12/30 00:04:37;;;;;;;0.90;0.50;;;;;;;8.40;77.65;99833.47;106450;1285;59267;-59
2023/12/30 00:07:24;;;;;;;0.50;0.40;;;;;;;8.38;77.67;99831.12;106449;1285;59415;-60
2023/12/30 00:10:10;;;;;;;1.10;0.60;;;;;;;8.36;77.74;99825.82;105700;1286;73360;-59
2023/12/30 00:13:00;;;;;;;1.00;0.60;;;;;;;8.33;78.78;99815.58;102805;1285;5002820;-59
2023/12/30 00:15:46;;;;;;;0.90;0.60;;;;;;;8.24;78.57;99809.39;106416;1287;72415;-60
2023/12/30 00:18:33;;;;;;;1.80;0.80;;;;;;;8.21;78.35;99806.86;106534;1286;59833;-60
2023/12/30 00:21:20;;;;;;;1.20;0.90;;;;;;;8.18;78.76;99807.63;106469;1285;59173;-60
2023/12/30 00:24:06;;;;;;;2.30;0.70;;;;;;;8.17;78.74;99805.58;106290;1286;210223;-60
2023/12/30 00:27:13;;;;;;;2.70;0.80;;;;;;;8.17;78.77;99805.92;106529;1285;67420;-60
2023/12/30 00:29:59;;;;;;;0.90;0.80;;;;;;;8.17;78.51;99799.40;106469;1286;71339;-60
2023/12/30 00:32:45;;;;;;;1.50;1.00;;;;;;;8.17;78.82;99803.68;105456;1290;61285;-59
2023/12/30 00:35:31;;;;;;;1.80;0.90;;;;;;;8.16;79.12;99804.23;105168;1285;61483;-60
2023/12/30 00:38:17;;;;;;;3.40;1.60;;;;;;;8.11;80.16;99802.09;105142;1285;73323;-58
2023/12/30 00:41:05;;;;;;;3.20;1.50;;;;;;;8.07;80.38;99798.56;105070;1285;69265;-58
2023/12/30 00:43:52;;;;;;;1.60;0.70;;;;;;;8.03;80.24;99794.35;105116;1285;71255;-58
2023/12/30 00:46:40;;;;;;;;;;;;;;;8.01;80.35;99788.21;106519;1285;59072;-59
2023/12/30 00:49:27;;;;;;;2.00;0.50;;;;;;;7.97;80.58;99782.95;106512;1285;59688;-59
2023/12/30 00:52:13;;;;;;;1.60;0.60;;;;;;;7.98;80.86;99777.61;106579;1285;74543;-60
2023/12/30 00:55:04;;;;;;;1.10;0.80;;;;;;;7.94;81.12;99769.79;106511;1285;67483;-60
2023/12/30 00:57:50;;;;;;;2.60;1.00;;;;;;;7.88;82.31;99769.05;105403;1286;71412;-59
2023/12/30 01:00:37;;;;;;;2.40;0.90;;;;;;;7.82;82.19;99767.26;104969;1285;61109;-59
2023/12/30 01:03:23;;;;;;;2.40;1.10;;;;;;;7.76;84.85;99766.05;105077;1286;61556;-59
2023/12/30 01:06:09;;;;;;;3.00;1.00;;;;;;;7.67;85.19;99760.55;105063;1285;73342;-58
2023/12/30 01:08:56;;;;;;;2.00;1.20;;;;;;;7.63;86.40;99765.75;105126;1285;67175;-59
2023/12/30 01:11:42;;;;;;;5.00;1.00;;;;;;;7.67;86.23;99756.94;104915;1288;71249;-59
2023/12/30 01:14:29;;;;;;;1.80;1.20;;;;;;;7.69;87.24;99749.20;105111;1286;62742;-59
2023/12/30 01:17:15;;;;;;;1.90;1.20;;;;;;;7.72;86.62;99743.48;105104;1285;61186;-58
2023/12/30 01:20:02;;;;;;;3.30;1.90;;;;;;;7.70;85.47;99732.70;105039;1285;74432;-61
2023/12/30 01:22:55;;;;;;;2.70;1.70;;;;;;;7.73;86.02;99725.77;106465;1288;68559;-58
2023/12/30 01:25:44;;;;;;;3.00;1.50;;;;;;;7.73;87.22;99736.59;106517;1285;71996;-60
2023/12/30 01:28:45;;;;;;;3.20;2.00;;;;;;;7.76;86.21;99737.05;106424;1285;59020;-60
2023/12/30 01:31:31;;;;;;;3.20;1.80;;;;;;;7.80;86.97;99734.58;106457;1285;60031;-60
2023/12/30 01:34:17;;;;;;;10.70;6.40;;;;;;;7.85;86.00;99726.38;106541;1285;73387;-60
2023/12/30 01:37:03;;;;;;;1.90;1.70;;;;;;;7.93;86.54;99724.34;106516;1285;69205;-60
2023/12/30 01:40:11;;;;;;;2.10;1.60;;;;;;;7.98;86.19;99719.78;106323;1285;185884;-60
2023/12/30 01:43:06;;;;;;;;;;;;;;;;;;;;;
2023/12/30 01:46:11;;;;;;;;;;;;;;;;;;;;;
2023/12/30 01:49:46;;;;;;;3.90;1.50;;;;;;;8.18;85.50;99712.69;106512;1287;73446;-60
2023/12/30 01:52:37;;;;;;;3.10;1.50;;;;;;;8.21;85.56;99709.02;106354;1285;67526;-60
2023/12/30 01:55:24;;;;;;;1.60;1.40;;;;;;;8.25;85.87;99702.76;106487;1285;73850;-60
2023/12/30 01:58:11;;;;;;;4.50;1.70;;;;;;;8.29;85.98;99707.31;106478;1285;59063;-60
2023/12/30 02:01:09;;;;;;;2.00;1.50;;;;;;;8.36;85.19;99708.52;106191;1288;391861;-60
2023/12/30 02:03:55;;;;;;;2.50;1.50;;;;;;;8.43;84.74;99718.52;105526;1285;73232;-59
2023/12/30 02:06:42;;;;;;;1.40;1.20;;;;;;;8.47;84.72;99723.41;105198;1285;68075;-58
2023/12/30 02:09:28;;;;;;;1.50;1.40;;;;;;;8.50;84.54;99737.25;105067;1286;70243;-58
2023/12/30 02:12:14;;;;;;;1.60;1.00;;;;;;;8.56;84.54;99747.27;105082;1286;61138;-59
2023/12/30 02:15:21;;;;;;;1.30;1.10;;;;;;;8.60;84.44;99757.65;105148;1285;61144;-59
2023/12/30 02:18:07;;;;;;;0.90;0.40;;;;;;;8.61;84.15;99828.24;106430;1286;73487;-59
2023/12/30 02:20:53;;;;;;;0.40;0.10;;;;;;;8.32;82.39;99855.60;106115;1290;69334;-59
2023/12/30 02:23:39;;;;;;;1.40;0.20;;;;;;;7.67;82.14;99850.76;105148;1285;71262;-59
2023/12/30 02:26:26;;;;;;;0.00;0.00;;;;;;;7.22;82.29;99853.87;105105;1288;61160;-59
2023/12/30 02:29:12;;;;;;;0.10;0.00;;;;;;;6.89;82.49;99834.80;102297;1285;5004476;-60
2023/12/30 02:31:58;;;;;;;0.60;0.10;;;;;;;6.68;82.53;99830.66;105598;1285;74481;-59
2023/12/30 02:34:47;;;;;;;0.80;0.10;;;;;;;6.44;82.53;99807.17;105207;1285;68017;-59
2023/12/30 02:37:33;;;;;;;1.30;0.30;;;;;;;6.27;82.57;99804.11;105251;1286;71283;-59
2023/12/30 02:40:20;;;;;;;0.00;0.00;;;;;;;6.13;82.54;99792.83;105298;1285;61429;-58
2023/12/30 02:43:06;;;;;;;0.40;0.10;;;;;;;6.01;82.68;99796.21;105271;1285;61734;-58
2023/12/30 02:45:55;;;;;;;0.40;0.10;;;;;;;5.84;82.29;99799.26;105210;1286;73078;-59
2023/12/30 02:48:41;;;;;;;0.20;0.10;;;;;;;5.70;82.56;99805.40;105271;1286;67271;-59
2023/12/30 02:51:27;;;;;;;0.00;0.00;;;;;;;5.57;82.74;99801.77;105202;1290;73081;-60
2023/12/30 02:54:14;;;;;;;1.40;0.10;;;;;;;5.45;82.84;99796.90;105217;1285;61164;-59
2023/12/30 02:57:02;;;;;;;0.90;0.10;;;;;;;5.39;82.76;99802.42;105225;1284;61652;-59
2023/12/30 02:59:49;;;;;;;0.60;0.30;;;;;;;5.33;82.81;99793.40;105207;1286;73623;-59
2023/12/30 03:02:35;;;;;;;0.20;0.20;;;;;;;5.29;82.73;99810.19;106629;1284;67329;-59
2023/12/30 03:05:21;;;;;;;1.30;0.50;;;;;;;5.22;82.35;99823.24;106579;1285;73055;-60
2023/12/30 03:08:07;;;;;;;0.30;0.30;;;;;;;5.15;82.49;99843.98;105455;1288;61143;-57
2023/12/30 03:10:53;;;;;;;1.90;0.50;;;;;;;5.15;82.81;99858.15;105182;1286;61199;-58
2023/12/30 03:13:40;;;;;;;1.10;0.80;;;;;;;5.19;82.93;99867.86;105199;1286;76968;-58
2023/12/30 03:16:26;;;;;;;2.50;1.40;;;;;;;5.23;82.92;99858.77;105225;1286;68067;-59
2023/12/30 03:19:12;;;;;;;1.60;1.20;;;;;;;5.25;82.94;99859.42;105171;1285;73970;-58
2023/12/30 03:21:58;;;;;;;1.50;0.90;;;;;;;5.28;83.12;99857.19;105155;1285;61035;-58
2023/12/30 03:24:45;;;;;;;1.20;0.80;;;;;;;5.28;82.96;99855.65;105189;1288;61609;-59
2023/12/30 03:27:31;;;;;;;0.80;0.70;;;;;;;5.28;82.84;99865.05;105222;1285;73255;-58
2023/12/30 03:30:17;;;;;;;1.00;0.90;;;;;;;5.29;83.29;99863.67;105185;1288;68151;-59
2023/12/30 03:33:04;;;;;;;1.40;0.70;;;;;;;5.26;83.09;99867.79;105207;1285;72046;-59
2023/12/30 03:35:50;;;;;;;0.80;0.50;;;;;;;5.25;84.03;99865.58;105094;1286;61347;-59
2023/12/30 03:38:37;;;;;;;0.20;0.20;;;;;;;5.26;83.39;99859.77;105203;1285;61117;-59
2023/12/30 03:41:24;;;;;;;0.20;0.20;;;;;;;5.27;83.42;99855.48;105223;1285;73095;-56
2023/12/30 03:44:11;;;;;;;0.10;0.00;;;;;;;5.25;83.35;99855.16;105246;1285;67889;-59
2023/12/30 03:46:57;;;;;;;1.90;0.20;;;;;;;5.25;83.38;99859.77;105226;1286;71239;-58
2023/12/30 03:49:45;;;;;;;0.30;0.20;;;;;;;5.24;83.11;99852.77;105236;1284;61318;-59
2023/12/30 03:52:31;;;;;;;0.50;0.20;;;;;;;5.19;83.24;99854.54;105189;1285;61282;-59
2023/12/30 03:55:17;;;;;;;0.30;0.30;;;;;;;5.12;83.34;99858.34;105255;1286;73187;-55
2023/12/30 03:58:03;;;;;;;;;;;;;;;5.04;83.42;99862.49;105181;1285;70093;-57
2023/12/30 04:00:50;;;;;;;1.10;0.20;;;;;;;4.97;83.57;99863.55;105189;1286;77873;-58
2023/12/30 04:03:36;;;;;;;0.40;0.20;;;;;;;4.94;84.45;99866.81;105212;1285;61267;-57
2023/12/30 04:06:22;;;;;;;0.30;0.10;;;;;;;4.96;83.80;99869.36;105225;1286;62100;-57
2023/12/30 04:09:08;;;;;;;;;;;;;;;4.98;83.67;99867.30;105248;1286;73340;-58
2023/12/30 04:11:55;;;;;;;1.00;0.30;;;;;;;4.98;83.66;99866.62;105187;1285;67609;-57
2023/12/30 04:14:41;;;;;;;0.50;0.20;;;;;;;5.03;85.11;99865.57;105183;1286;71279;-58
2023/12/30 04:17:27;;;;;;;0.60;0.20;;;;;;;5.12;85.82;99869.80;105198;1288;61486;-59
2023/12/30 04:20:13;;;;;;;;;;;;;;;5.20;85.85;99869.39;105215;1285;61350;-58
2023/12/30 04:23:00;;;;;;;;;;;;;;;5.31;86.05;99878.19;105250;1286;73056;-59
2023/12/30 04:25:46;;;;;;;0.70;0.20;;;;;;;5.43;86.41;99880.51;105166;1285;67513;-58
2023/12/30 04:28:32;;;;;;;1.10;0.60;;;;;;;5.46;86.26;99869.38;105216;1287;73986;-59
2023/12/30 04:31:18;;;;;;;1.90;1.00;;;;;;;5.51;86.25;99857.71;105261;1286;61267;-59
2023/12/30 04:34:05;;;;;;;1.50;0.80;;;;;;;5.58;87.74;99863.64;105256;1286;62276;-67
2023/12/30 04:36:51;;;;;;;0.90;0.80;;;;;;;5.65;87.44;99866.84;105252;1286;73311;-59
2023/12/30 04:39:37;;;;;;;2.30;1.70;;;;;;;5.68;87.25;99875.69;105288;1287;67779;-57
2023/12/30 04:42:23;;;;;;;0.70;0.70;;;;;;;5.73;87.74;99874.95;105189;1288;71802;-57
2023/12/30 04:45:12;;;;;;;2.00;1.10;;;;;;;5.72;87.91;99885.59;105178;1286;61263;-57
2023/12/30 04:47:58;;;;;;;1.70;1.30;;;;;;;5.71;87.65;99887.64;105198;1286;61256;-57
2023/12/30 04:50:44;;;;;;;3.70;2.00;;;;;;;5.72;87.42;99889.33;105244;1285;73642;-57
2023/12/30 04:53:32;;;;;;;2.50;2.30;;;;;;;5.76;87.87;99891.17;105257;1285;68556;-57
2023/12/30 04:56:18;;;;;;;3.10;2.60;;;;;;;5.77;87.33;99890.30;105254;1286;72136;-57
2023/12/30 04:59:05;;;;;;;2.10;1.90;;;;;;;5.78;87.42;99887.05;105216;1288;61253;-59
2023/12/30 05:01:51;;;;;;;1.40;1.30;;;;;;;5.81;87.75;99895.41;105248;1285;63205;-58
2023/12/30 05:04:37;;;;;;;2.10;0.70;;;;;;;5.84;87.86;99904.44;105209;1285;73724;-59
2023/12/30 05:07:25;;;;;;;1.40;0.40;;;;;;;5.88;87.90;99914.70;105123;1286;67190;-62
2023/12/30 05:10:11;;;;;;;0.80;0.30;;;;;;;5.92;88.11;99906.98;106583;1285;71215;-60
2023/12/30 05:12:57;;;;;;;1.50;0.60;;;;;;;5.93;87.94;99908.33;106164;1288;59034;-58
2023/12/30 05:15:43;;;;;;;0.70;0.40;;;;;;;5.95;87.84;99913.45;105221;1285;61162;-59
2023/12/30 05:18:29;;;;;;;4.80;2.50;;;;;;;5.99;88.23;99917.87;105206;1285;73165;-58
2023/12/30 05:21:16;;;;;;;15.20;5.80;;;;;;;6.03;87.95;99919.20;105228;1286;69186;-58
2023/12/30 05:24:10;;;;;;;15.20;5.80;;;;;;;6.06;88.09;99908.40;95458;1286;10003039;-59
2023/12/30 05:27:24;;;;;;;17.90;6.90;;;;;;;6.12;88.49;99906.98;62362;1285;20073511;-65
2023/12/30 05:30:10;;;;;;;6.90;3.10;;;;;;;6.14;88.04;99906.61;105732;1288;73434;-59
2023/12/30 05:33:01;;;;;;;10.30;3.90;;;;;;;6.15;87.95;99901.64;106619;1285;74536;-59
2023/12/30 05:35:47;;;;;;;7.90;2.80;;;;;;;6.18;88.02;99901.61;106583;1286;71452;-60
2023/12/30 05:38:33;;;;;;;4.00;1.80;;;;;;;6.25;88.48;99895.71;105486;1286;59112;-58
2023/12/30 05:41:20;;;;;;;1.40;0.80;;;;;;;6.32;88.36;99893.91;105184;1285;61186;-59
2023/12/30 05:44:06;;;;;;;1.70;0.50;;;;;;;6.34;88.12;99890.65;105175;1285;75290;-58
2023/12/30 05:46:52;;;;;;;1.30;0.60;;;;;;;6.34;88.29;99880.54;105207;1286;67177;-58
2023/12/30 05:49:40;;;;;;;;;;;;;;;6.35;88.02;99877.11;105202;1285;71255;-60
2023/12/30 05:52:27;;;;;;;3.70;0.70;;;;;;;6.34;88.41;99904.84;105199;1284;61171;-59
2023/12/30 05:55:14;;;;;;;1.70;0.60;;;;;;;6.34;88.20;99926.92;105244;1288;59903;-59
2023/12/30 05:58:00;;;;;;;2.80;1.30;;;;;;;6.34;88.41;99933.44;105151;1286;73933;-59
2023/12/30 06:00:46;;;;;;;2.10;1.20;;;;;;;6.37;88.52;99939.58;105975;1288;312461;-59
2023/12/30 06:03:35;;;;;;;1.80;0.60;;;;;;;6.43;88.69;99936.94;106541;1288;72514;-58
2023/12/30 06:06:21;;;;;;;1.10;0.40;;;;;;;6.46;88.39;99938.80;106560;1285;59169;-60
2023/12/30 06:09:07;;;;;;;3.20;0.60;;;;;;;6.49;88.58;99933.29;106581;1285;60048;-60
2023/12/30 06:11:53;;;;;;;1.00;0.50;;;;;;;6.55;88.36;99928.26;106591;1286;73426;-60
2023/12/30 06:14:40;;;;;;;2.00;0.60;;;;;;;6.58;88.51;99930.95;105745;1285;66473;-59
2023/12/30 06:17:26;;;;;;;2.70;0.60;;;;;;;6.59;88.57;99929.92;105182;1288;73595;-59
2023/12/30 06:20:12;;;;;;;1.00;0.50;;;;;;;6.59;88.44;99931.13;105176;1285;61400;-58
2023/12/30 06:22:58;;;;;;;5.00;0.70;;;;;;;6.59;88.48;99943.62;105225;1289;61168;-58
2023/12/30 06:25:45;;;;;;;2.60;0.40;;;;;;;6.62;88.76;99951.48;105168;1286;77308;-58
2023/12/30 06:28:31;;;;;;;1.60;0.50;;;;;;;6.64;88.49;99956.42;105176;1285;67483;-59
2023/12/30 06:31:17;;;;;;;0.80;0.50;;;;;;;6.65;88.53;99954.35;105224;1288;73077;-61
2023/12/30 06:34:03;;;;;;;1.10;0.70;;;;;;;6.67;89.07;99954.33;105287;1288;61265;-62
2023/12/30 06:36:50;;;;;;;1.30;0.50;;;;;;;6.68;88.69;99958.27;105239;1285;61182;-60
2023/12/30 06:39:36;;;;;;;4.00;1.80;;;;;;;6.68;89.11;99964.95;105174;1291;75215;-60
2023/12/30 06:42:22;;;;;;;2.30;0.70;;;;;;;6.66;89.15;99968.55;105189;1288;69916;-61
2023/12/30 06:45:09;;;;;;;2.50;0.80;;;;;;;6.62;89.34;99977.67;105195;1287;73409;-59
2023/12/30 06:47:55;;;;;;;1.60;0.70;;;;;;;6.58;89.31;99976.34;106532;1286;59251;-60
2023/12/30 06:50:41;;;;;;;1.80;0.70;;;;;;;6.56;89.99;99984.58;106515;1287;60050;-60
2023/12/30 06:53:30;;;;;;;2.30;0.90;;;;;;;6.47;89.66;99982.27;106560;1286;74545;-61
2023/12/30 06:56:19;;;;;;;2.60;1.20;;;;;;;6.43;89.66;99990.70;106578;1286;68546;-59
2023/12/30 06:59:05;;;;;;;3.40;1.10;;;;;;;6.34;89.86;99992.49;106488;1286;71229;-60
2023/12/30 07:01:54;;;;;;;3.00;0.70;;;;;;;6.29;89.81;99993.21;106527;1286;58896;-61
2023/12/30 07:04:40;;;;;;;1.80;0.60;;;;;;;6.26;89.58;99991.02;106523;1285;59707;-60
2023/12/30 07:07:26;;;;;;;3.20;0.80;;;;;;;6.23;89.90;99996.54;106571;1286;73353;-61
2023/12/30 07:10:22;;;;;;;2.50;0.40;;;;;;;6.19;89.76;100009.59;106519;1286;67235;-60
2023/12/30 07:13:08;;;;;;;2.20;0.50;;;;;;;6.20;90.21;100012.48;106532;1286;71921;-60
2023/12/30 07:15:54;;;;;;;2.30;0.50;;;;;;;6.18;90.12;100015.07;106575;1285;59471;-60
2023/12/30 07:18:40;;;;;;;0.50;0.40;;;;;;;6.16;89.93;100013.55;106543;1286;59369;-61
2023/12/30 07:21:26;;;;;;;1.20;0.40;;;;;;;6.16;89.90;100020.39;106570;1288;73499;-61
2023/12/30 07:24:15;;;;;;;1.70;0.60;;;;;;;6.13;90.04;100024.70;106538;1285;68243;-61
2023/12/30 07:27:02;;;;;;;0.80;0.30;;;;;;;6.11;89.95;100040.79;106482;1286;72353;-61
2023/12/30 07:29:48;;;;;;;;;;;;;;;6.12;89.92;100049.35;106534;1286;59140;-61
2023/12/30 07:32:34;;;;;;;0.90;0.30;;;;;;;6.12;90.12;100051.23;106542;1289;59144;-61
2023/12/30 07:35:20;;;;;;;1.50;0.50;;;;;;;6.06;90.76;100048.86;106605;1286;74055;-60
2023/12/30 07:38:07;;;;;;;1.70;0.60;;;;;;;6.02;90.39;100046.85;106621;1286;68333;-60
2023/12/30 07:40:53;;;;;;;1.00;0.60;;;;;;;5.97;90.32;100055.77;106548;1286;71326;-60
2023/12/30 07:43:39;;;;;;;19.50;3.30;;;;;;;5.96;90.40;100064.84;106469;1286;58931;-60
2023/12/30 07:46:25;;;;;;;0.80;0.40;;;;;;;5.96;91.01;100087.25;106611;1285;60227;-60
2023/12/30 07:49:11;;;;;;;1.40;0.50;;;;;;;5.93;91.32;100083.16;106496;1285;73066;-60
2023/12/30 07:52:00;;;;;;;1.10;0.40;;;;;;;5.95;91.15;100096.15;106531;1286;68075;-61
2023/12/30 07:54:48;;;;;;;0.30;0.30;;;;;;;5.92;91.27;100093.95;106466;1286;71616;-60
2023/12/30 07:57:34;;;;;;;0.60;0.40;;;;;;;5.89;91.17;100091.39;106474;1285;59045;-61
2023/12/30 08:00:21;;;;;;;0.70;0.60;;;;;;;5.86;90.86;100085.38;106473;1286;59141;-60
2023/12/30 08:03:07;;;;;;;;;;;;;;;5.84;90.66;100094.30;106527;1286;72598;-60
2023/12/30 08:05:53;;;;;;;1.10;0.60;;;;;;;5.78;90.99;100094.84;106464;1286;67014;-61
2023/12/30 08:08:39;;;;;;;1.10;0.70;;;;;;;5.69;90.71;100102.26;106440;1285;72689;-61
2023/12/30 08:11:25;;;;;;;1.20;0.50;;;;;;;5.63;90.92;100104.85;106536;1284;59120;-60
2023/12/30 08:14:13;;;;;;;2.80;0.60;;;;;;;5.59;90.79;100109.66;106483;1285;59592;-59
2023/12/30 08:16:59;;;;;;;1.00;0.40;;;;;;;5.52;90.90;100116.17;106386;1285;74322;-61
2023/12/30 08:19:45;;;;;;;1.00;0.60;;;;;;;5.50;90.88;100116.86;106193;1286;321409;-61
2023/12/30 08:22:31;;;;;;;1.20;0.50;;;;;;;5.49;90.87;100121.32;106411;1286;72912;-61
2023/12/30 08:25:17;;;;;;;2.60;0.30;;;;;;;5.49;90.56;100124.90;106424;1287;60671;-61
2023/12/30 08:28:03;;;;;;;1.40;0.70;;;;;;;5.46;90.38;100130.89;106436;1285;60364;-61
2023/12/30 08:31:10;;;;;;;2.10;0.40;;;;;;;5.59;90.75;100139.23;106468;1285;74126;-61
2023/12/30 08:33:56;;;;;;;0.90;0.40;;;;;;;5.98;90.52;100146.09;106468;1285;67216;-61
2023/12/30 08:36:43;;;;;;;1.80;0.70;;;;;;;6.06;90.30;100153.77;106451;1284;71796;-61
2023/12/30 08:39:32;;;;;;;2.80;0.70;;;;;;;6.24;90.22;100163.39;106434;1285;59368;-62
2023/12/30 08:42:18;;;;;;;0.80;0.40;;;;;;;6.24;89.98;100168.35;106524;1286;59811;-61
2023/12/30 08:45:05;;;;;;;0.70;0.40;;;;;;;6.18;89.93;100176.45;106493;1284;74342;-61
2023/12/30 08:47:52;;;;;;;1.10;0.70;;;;;;;6.01;89.78;100178.25;106387;1288;69440;-61
2023/12/30 08:50:38;;;;;;;0.90;0.60;;;;;;;5.86;89.95;100186.48;106409;1285;70380;-61
2023/12/30 08:53:24;;;;;;;1.60;0.80;;;;;;;5.75;90.08;100189.42;106533;1285;58917;-61
2023/12/30 08:56:22;;;;;;;;;;;;;;;;;;;;;
2023/12/30 08:59:08;;;;;;;440.10;113.30;;;;;;;5.93;90.15;100203.42;106054;1285;73297;-60
2023/12/30 09:02:17;;;;;;;2.90;1.20;;;;;;;6.07;89.84;100201.66;106462;1286;68742;-61
2023/12/30 09:05:14;;;;;;;0.60;0.60;;;;;;;6.25;89.08;100202.40;106512;1284;70933;-62
2023/12/30 09:08:07;;;;;;;1.50;0.70;;;;;;;6.11;88.45;100206.44;106413;1286;59111;-61
2023/12/30 09:11:22;;;;;;;219.40;81.00;;;;;;;5.95;88.59;100209.06;106442;1285;59388;-61
2023/12/30 09:14:24;;;;;;;1.70;0.80;;;;;;;6.08;88.48;100213.45;106455;1285;75080;-61
2023/12/30 09:17:13;;;;;;;2.80;0.90;;;;;;;6.44;87.81;100211.02;106449;1285;68214;-61
2023/12/30 09:20:02;;;;;;;1.80;0.80;;;;;;;6.87;87.13;100204.91;106403;1286;71459;-60
2023/12/30 09:25:58;;;;;;;3.30;2.40;;;;;;;7.27;85.42;100213.81;105687;1294;59408;-61
2023/12/30 09:28:55;;;;;;;;;;;;;;;;;;;;;
2023/12/30 09:32:32;;;;;;;94.10;28.40;;;;;;;7.44;84.15;100224.10;105526;1295;156822;-61
2023/12/30 09:35:18;;;;;;;8.80;3.00;;;;;;;7.14;83.79;100224.73;105651;1294;71209;-61
2023/12/30 09:38:23;;;;;;;;;;;;;;;;;;;;;
2023/12/30 09:41:33;;;;;;;3.60;1.30;;;;;;;6.98;83.86;100226.41;105700;1295;59243;-61
2023/12/30 09:44:22;;;;;;;3.70;1.30;;;;;;;7.09;83.91;100228.55;105672;1293;73375;-61
2023/12/30 09:47:10;;;;;;;2.30;1.10;;;;;;;7.15;83.37;100228.84;105707;1292;69436;-61
2023/12/30 09:49:59;;;;;;;2.90;1.00;;;;;;;7.08;82.83;100230.79;105710;1293;72496;-60
2023/12/30 09:52:56;;;;;;;3.90;1.20;;;;;;;6.97;82.80;100237.38;105628;1295;59337;-61
2023/12/30 09:55:48;;;;;;;2.40;1.00;;;;;;;6.85;82.35;100233.02;105705;1292;59459;-61
2023/12/30 09:58:45;;;;;;;7.70;1.40;;;;;;;6.85;82.52;100235.58;105658;1293;72850;-63
2023/12/30 10:01:41;;;;;;;5.60;1.90;;;;;;;6.95;82.38;100234.48;105703;1293;67567;-61
2023/12/30 10:04:27;;;;;;;2.60;1.90;;;;;;;7.22;82.54;100241.12;106404;1286;72288;-61
2023/12/30 10:07:13;;;;;;;153.40;83.20;;;;;;;7.19;81.38;100236.01;32736;1285;20064512;-61
2023/12/30 10:10:00;;;;;;;3.80;2.80;;;;;;;7.09;81.49;100240.90;106467;1285;59425;-60
2023/12/30 10:12:47;;;;;;;4.40;2.70;;;;;;;7.32;81.41;100245.65;106513;1288;73831;-61
2023/12/30 10:15:33;;;;;;;4.80;2.70;;;;;;;7.52;81.42;100245.13;106503;1284;66423;-61
2023/12/30 10:18:22;;;;;;;13.70;4.50;;;;;;;7.91;81.05;100252.25;106445;1288;71260;-60
2023/12/30 10:21:08;;;;;;;6.20;3.50;;;;;;;7.75;79.29;100248.15;106095;1285;59419;-60
2023/12/30 10:23:58;;;;;;;4.00;2.70;;;;;;;7.62;80.32;100252.92;105096;1286;60555;-60
2023/12/30 10:26:44;;;;;;;7.60;3.20;;;;;;;7.93;79.64;100254.29;105111;1288;72215;-56
2023/12/30 10:29:31;;;;;;;6.30;2.40;;;;;;;7.99;79.03;100257.13;105113;1288;67931;-60
2023/12/30 10:32:41;;;;;;;5.50;2.30;;;;;;;8.01;78.78;100266.22;106503;1285;72353;-62
2023/12/30 10:35:26;;;;;;;3.50;1.80;;;;;;;8.17;78.12;100277.36;106520;1285;59248;-63
2023/12/30 10:38:13;;;;;;;5.60;1.50;;;;;;;8.44;77.85;100274.29;106573;1285;60289;-61
2023/12/30 10:41:00;;;;;;;3.40;1.60;;;;;;;8.38;76.17;100277.62;106519;1285;74499;-62
2023/12/30 10:43:51;;;;;;;62.70;12.30;;;;;;;8.09;77.11;100277.45;106559;1285;67426;-59
2023/12/30 10:46:38;;;;;;;2.00;0.80;;;;;;;7.87;76.92;100282.84;106604;1285;72547;-63
2023/12/30 10:49:35;;;;;;;2.70;1.20;;;;;;;7.78;76.78;100288.80;106464;1285;59011;-59
2023/12/30 10:52:26;;;;;;;;;;;;;;;7.76;77.14;100292.42;106545;1286;59920;-62
2023/12/30 10:55:15;;;;;;;61.90;26.00;;;;;;;7.71;76.73;100295.39;106469;1285;73426;-61
2023/12/30 10:58:35;;;;;;;4.00;0.80;;;;;;;7.57;76.51;100299.80;106544;1284;68233;-61
2023/12/30 11:01:21;;;;;;;4.30;0.80;;;;;;;7.50;76.57;100297.79;105885;1291;71326;-63
2023/12/30 11:04:27;;;;;;;5.40;1.80;;;;;;;7.60;77.22;100299.77;47048;1291;10002025;-61
2023/12/30 11:07:17;;;;;;;2.90;1.90;;;;;;;7.68;76.81;100302.95;105768;1291;59340;-63
2023/12/30 11:10:20;;;;;;;4.90;1.10;;;;;;;7.58;75.84;100303.21;105905;1291;73543;-60
2023/12/30 11:13:06;;;;;;;6.00;1.50;;;;;;;7.49;75.91;100302.44;105868;1291;68998;-59
2023/12/30 11:15:54;;;;;;;2.80;0.90;;;;;;;7.56;75.73;100303.92;105870;1291;72669;-59
2023/12/30 11:18:51;;;;;;;1.90;1.00;;;;;;;7.50;75.15;100305.17;105886;1293;58979;-60
2023/12/30 11:21:43;;;;;;;6.50;1.10;;;;;;;7.59;75.38;100304.23;105818;1291;59030;-60
2023/12/30 11:24:52;;;;;;;3.90;1.10;;;;;;;7.55;75.35;100304.79;105927;1295;73584;-60
2023/12/30 11:27:38;;;;;;;277.60;109.40;;;;;;;7.53;75.18;100311.48;105874;1291;67333;-61
2023/12/30 11:30:14;;;;;;;5.30;1.00;;;;;;;7.56;74.98;100313.35;105908;1291;59158;-60
2023/12/30 11:33:02;;;;;;;4.60;1.20;;;;;;;7.68;75.29;100316.00;105942;1291;59489;-60
2023/12/30 11:35:28;;;;;;;4.40;1.40;;;;;;;7.79;74.83;100316.91;105958;1291;59156;-60
2023/12/30 11:37:57;;;;;;;4.30;1.30;;;;;;;7.92;74.85;100320.71;106351;1285;60484;-60
2023/12/30 11:40:32;;;;;;;27.70;4.10;;;;;;;7.91;74.67;100316.77;106634;1285;67175;-60
2023/12/30 11:42:58;;;;;;;571.00;160.50;;;;;;;7.79;74.45;100318.28;106621;1284;71358;-60
2023/12/30 11:45:25;;;;;;;5.90;2.00;;;;;;;7.65;74.26;100324.25;106550;1284;60564;-60
2023/12/30 11:48:22;;;;;;;;;;;;;;;;;;;;;
2023/12/30 11:50:53;;;;;;;27.60;4.50;;;;;;;7.50;74.48;100321.13;106467;1285;74322;-60
2023/12/30 11:53:21;;;;;;;4.70;1.00;;;;;;;7.40;74.21;100316.91;106617;1285;67294;-60
2023/12/30 11:55:47;;;;;;;5.30;1.60;;;;;;;7.38;74.42;100320.87;106591;1285;71353;-59
2023/12/30 11:58:14;;;;;;;3.10;1.10;;;;;;;7.41;74.81;100313.65;106566;1285;59037;-59
2023/12/30 12:00:42;;;;;;;3.30;1.20;;;;;;;7.45;74.72;100317.91;106538;1285;58682;-60
2023/12/30 12:03:08;;;;;;;2.80;0.90;;;;;;;7.41;74.29;100322.73;106554;1285;73474;-62
2023/12/30 12:05:34;;;;;;;7.30;1.90;;;;;;;7.36;74.22;100320.89;106543;1285;60046;-60
2023/12/30 12:08:07;;;;;;;2.30;1.40;;;;;;;7.35;74.41;100319.19;106526;1286;59096;-60
2023/12/30 12:10:34;;;;;;;3.30;1.00;;;;;;;7.31;74.13;100321.60;106608;1285;59205;-60
2023/12/30 12:13:10;;;;;;;2.20;1.00;;;;;;;7.29;74.18;100327.45;106621;1285;59604;-58
2023/12/30 12:15:36;;;;;;;5.60;1.10;;;;;;;7.27;74.26;100325.93;106589;1285;75766;-60
2023/12/30 12:18:02;;;;;;;4.40;1.10;;;;;;;7.25;74.33;100330.60;106453;1285;59544;-59
2023/12/30 12:20:47;;;;;;;4.10;1.80;;;;;;;7.25;74.45;100326.14;106483;1286;72200;-60
2023/12/30 12:23:34;;;;;;;261.80;63.30;;;;;;;7.24;74.18;100325.63;106529;1285;59403;-60
2023/12/30 12:26:22;;;;;;;6.60;1.50;;;;;;;7.18;73.78;100326.52;106595;1284;59398;-58
2023/12/30 12:29:16;;;;;;;6.50;4.40;;;;;;;7.15;74.03;100322.61;106504;1285;73410;-60
2023/12/30 12:32:06;;;;;;;3.10;1.50;;;;;;;7.10;73.88;100319.73;106544;1285;67444;-61
2023/12/30 12:34:53;;;;;;;6.80;3.90;;;;;;;7.06;74.20;100321.46;106506;1284;70583;-60
2023/12/30 12:37:39;;;;;;;8.00;2.30;;;;;;;6.97;73.64;100327.00;106577;1284;58956;-60
2023/12/30 12:40:28;;;;;;;7.10;2.00;;;;;;;6.91;73.86;100323.61;106595;1285;58899;-60
2023/12/30 12:43:14;;;;;;;4.00;1.70;;;;;;;6.93;74.08;100328.91;106600;1285;73420;-61
2023/12/30 12:46:01;;;;;;;5.80;1.70;;;;;;;6.99;74.02;100332.48;106550;1285;67286;-62
2023/12/30 12:48:47;;;;;;;2.70;1.20;;;;;;;7.09;73.86;100330.36;106546;1285;71358;-61
2023/12/30 12:51:44;;;;;;;3.30;1.50;;;;;;;7.06;73.63;100339.12;106631;1283;59488;-61
2023/12/30 12:54:30;;;;;;;3.10;1.70;;;;;;;7.02;74.06;100339.84;106569;1284;60183;-59
2023/12/30 12:57:29;;;;;;;4.10;1.50;;;;;;;6.99;73.91;100341.39;106554;1285;73401;-59
2023/12/30 13:00:18;;;;;;;35.70;9.90;;;;;;;6.91;73.92;100337.31;106558;1285;68710;-61
2023/12/30 13:03:05;;;;;;;5.20;2.00;;;;;;;6.83;73.77;100340.11;106540;1285;70801;-60
2023/12/30 13:05:51;;;;;;;7.20;1.40;;;;;;;6.78;74.06;100342.53;106631;1284;59478;-60
2023/12/30 13:08:37;;;;;;;4.10;1.50;;;;;;;6.78;74.28;100350.58;106589;1285;60684;-61
2023/12/30 13:11:26;;;;;;;3.60;1.30;;;;;;;6.79;74.12;100343.55;106627;1284;73420;-61
2023/12/30 13:14:17;;;;;;;8.30;2.30;;;;;;;6.80;74.21;100345.43;106477;1285;67422;-60
2023/12/30 13:17:11;;;;;;;6.50;2.30;;;;;;;6.80;74.24;100337.55;106591;1284;71364;-60